|
公历农历对照

机场天气预报 (TAF)

机场天气预报 (TAF) 载述关于某个机场在预测期内预料会出现的气象要素。

香港天文台在 18 年 12 月 17 日 19 时 00 分最新发出的香港国际机场天气预报

TAF VHHH 171100Z 1712/1818 03010KT CAVOK TX20/1806Z TN14/1723Z TEMPO 1712/1718 VRB05KT BECMG 1806/1808 09010KT=

(下次更新时间:18年12月18日01时00分)

机场天气预报电码经解码后:-

香港天文台发出 2018 年 12 月 17 日 12 协调世界时 至 2018 年 12 月 18 日 18 协调世界时 的机场天气预报:
 

时间(协调世界时) 能见度 天气状况 云层高度
2018 年 12 月 17 日 12 时 至 2018 年 12 月 18 日 06 时 东北偏北风 (030 o) 10 海里/小时 10 公里以上 无重要天气状况
5000 呎以下无云层,
无积雨云。
2018 年 12 月 17 日 12 时 至 18 时 期间间中 5 海里/小时 (风向不定) 10 公里以上 无重要天气状况
5000 呎以下无云层,
无积雨云。
2018 年 12 月 18 日 06 时 至 08 时 期间逐渐转变为 东风 (090 o) 10 海里/小时 10 公里以上 无重要天气状况
5000 呎以下无云层,
无积雨云。

时间(协调世界时) 气温
2018 年 12 月 18 日 06 时
最高20 oC
2018 年 12 月 17 日 23 时
最低14 oC

份: 云层是以估计天空被云遮蔽之总面积来评定。把天空分为八份,1 份即是八份之一的天空被云遮蔽,2 份即是八份之二的天空被云遮蔽,如此类推。
  0 份 = 天朗气清,1-2 份 = 稀薄云层,3-4 份 = 零散云层,5-7 份 = 疏松云层,8 份 = 天色阴暗。
若想进一步了解机场天气预报(TAF)的编码,请参看剖析TAF电码的意义
若想进一步了解云,请参看香港常见的云
 
香港国际机场航空天气报告资料 本港地区航空天气预报
 
版权及声明